createdAt,value
2019-04-26T00:01:19.026Z,26.17
2019-04-26T00:03:50.846Z,28.12
2019-04-26T00:06:21.614Z,31.52
2019-04-26T00:08:56.607Z,31.73
2019-04-26T00:11:31.704Z,31.45
2019-04-26T00:14:16.281Z,32.15
2019-04-26T00:16:48.630Z,33.70
2019-04-26T00:19:19.128Z,32.05
2019-04-26T00:21:49.710Z,32.83
2019-04-26T00:24:21.402Z,33.10
2019-04-26T00:26:51.911Z,32.45
2019-04-26T00:29:22.370Z,29.80
2019-04-26T00:31:52.805Z,30.17
2019-04-26T00:34:23.327Z,29.25
2019-04-26T00:36:53.869Z,28.32
2019-04-26T00:39:25.077Z,28.12
2019-04-26T00:41:55.735Z,29.12
2019-04-26T00:44:27.549Z,26.48
2019-04-26T00:47:00.754Z,27.87
2019-04-26T00:49:43.084Z,28.65
2019-04-26T00:52:05.274Z,27.75
2019-04-26T00:54:35.820Z,30.37
2019-04-26T00:57:07.334Z,30.75
2019-04-26T00:59:39.151Z,30.77
2019-04-26T01:02:23.045Z,31.07
2019-04-26T01:04:53.457Z,32.25
2019-04-26T01:07:23.893Z,33.30
2019-04-26T01:09:54.311Z,33.45
2019-04-26T01:12:24.712Z,32.93
2019-04-26T01:14:55.242Z,36.05
2019-04-26T01:17:26.723Z,38.13
2019-04-26T01:19:58.606Z,38.40
2019-04-26T01:22:31.917Z,38.80
2019-04-26T01:25:04.176Z,36.73
2019-04-26T01:27:37.302Z,34.75
2019-04-26T01:30:10.057Z,37.08
2019-04-26T01:32:43.135Z,36.45
2019-04-26T01:35:13.601Z,34.08
2019-04-26T01:37:46.376Z,35.68
2019-04-26T01:40:18.445Z,28.77
2019-04-26T01:42:54.308Z,31.17
2019-04-26T01:45:32.089Z,32.17
2019-04-26T01:48:07.089Z,31.47
2019-04-26T01:50:37.866Z,31.48
2019-04-26T01:53:08.599Z,30.37
2019-04-26T01:55:39.055Z,31.60
2019-04-26T01:58:09.489Z,30.75
2019-04-26T02:00:59.172Z,29.82
2019-04-26T02:03:31.832Z,31.10
2019-04-26T02:06:02.486Z,30.12
2019-04-26T02:08:32.921Z,34.13
2019-04-26T02:11:03.610Z,31.87
2019-04-26T02:13:34.045Z,35.40
2019-04-26T02:16:04.922Z,37.78
2019-04-26T02:18:35.563Z,35.78
2019-04-26T02:21:18.407Z,38.27
2019-04-26T02:23:51.098Z,38.65
2019-04-26T02:26:35.112Z,36.88
2019-04-26T02:29:08.557Z,36.58
2019-04-26T02:31:40.830Z,36.40
2019-04-26T02:34:11.584Z,36.42
2019-04-26T02:36:57.347Z,38.40
2019-04-26T02:39:22.978Z,37.60
2019-04-26T02:41:56.782Z,36.70
2019-04-26T02:44:32.970Z,37.03
2019-04-26T02:47:24.206Z,34.83
2019-04-26T02:49:58.163Z,33.95
2019-04-26T02:52:47.910Z,38.17
2019-04-26T02:55:53.872Z,35.77
2019-04-26T02:58:29.435Z,35.43
2019-04-26T03:01:01.758Z,38.73
2019-04-26T03:03:34.370Z,33.60
2019-04-26T03:06:04.686Z,33.47
2019-04-26T03:08:39.351Z,32.90
2019-04-26T03:11:16.890Z,34.20
2019-04-26T03:13:49.581Z,32.77
2019-04-26T03:16:31.438Z,32.23
2019-04-26T03:19:09.685Z,33.53
2019-04-26T03:21:57.834Z,29.55
2019-04-26T03:24:32.960Z,30.97
2019-04-26T03:27:35.896Z,30.95
2019-04-26T03:30:22.800Z,33.03
2019-04-26T03:32:56.709Z,34.45
2019-04-26T03:35:56.391Z,32.83
2019-04-26T03:38:41.075Z,32.15
2019-04-26T03:41:36.297Z,33.80
2019-04-26T03:44:09.180Z,34.25
2019-04-26T03:46:51.283Z,30.90
2019-04-26T03:49:38.090Z,30.57
2019-04-26T03:52:21.857Z,28.73
2019-04-26T03:54:55.231Z,30.62
2019-04-26T03:57:36.922Z,26.87
2019-04-26T04:00:27.927Z,27.98
2019-04-26T04:03:29.693Z,26.07
2019-04-26T04:06:02.875Z,28.15
2019-04-26T04:08:42.950Z,31.68
2019-04-26T04:11:17.115Z,27.27
2019-04-26T04:13:56.291Z,29.23
2019-04-26T04:16:48.898Z,31.10
2019-04-26T04:20:01.214Z,31.37
2019-04-26T04:22:41.785Z,27.65
2019-04-26T04:25:15.567Z,27.95
2019-04-26T04:27:49.355Z,30.02
2019-04-26T04:30:40.014Z,28.45
2019-04-26T04:33:18.415Z,27.52
2019-04-26T04:35:52.917Z,28.07
2019-04-26T04:38:30.951Z,35.75
2019-04-26T04:41:11.518Z,32.80
2019-04-26T04:43:48.799Z,35.23
2019-04-26T04:46:43.846Z,35.23
2019-04-26T04:49:55.169Z,33.02
2019-04-26T04:52:41.322Z,32.85
2019-04-26T04:55:15.448Z,36.15
2019-04-26T04:58:09.656Z,43.73
2019-04-26T05:01:05.506Z,43.30
2019-04-26T05:03:56.921Z,41.68
2019-04-26T05:06:31.826Z,43.83
2019-04-26T05:09:06.919Z,43.50
2019-04-26T05:11:45.949Z,44.05
2019-04-26T05:14:45.260Z,34.63
2019-04-26T05:17:34.449Z,38.83
2019-04-26T05:20:25.742Z,37.40
2019-04-26T05:23:19.783Z,33.78
2019-04-26T05:26:24.545Z,30.65
2019-04-26T05:29:26.097Z,27.48
2019-04-26T05:32:28.896Z,27.85
2019-04-26T05:35:46.235Z,24.75
2019-04-26T05:38:38.732Z,27.22
2019-04-26T05:41:35.836Z,26.23
2019-04-26T05:44:16.636Z,25.10
2019-04-26T05:47:23.009Z,27.87
2019-04-26T05:50:16.026Z,22.80
2019-04-26T05:52:57.235Z,23.75
2019-04-26T05:55:41.062Z,21.85
2019-04-26T05:58:44.432Z,18.05
2019-04-26T06:01:32.803Z,19.35
2019-04-26T06:04:25.437Z,18.25
2019-04-26T06:07:03.082Z,19.10
2019-04-26T06:09:54.441Z,22.98
2019-04-26T06:12:29.442Z,24.25
2019-04-26T06:15:21.819Z,23.85
2019-04-26T06:18:11.597Z,22.73
2019-04-26T06:20:47.736Z,19.95
2019-04-26T06:23:23.946Z,20.17
2019-04-26T06:26:31.851Z,19.30
2019-04-26T06:29:13.807Z,19.35
2019-04-26T06:32:01.237Z,19.87
2019-04-26T06:34:59.758Z,18.62
2019-04-26T06:37:55.351Z,18.90
2019-04-26T06:40:28.773Z,19.50
2019-04-26T06:43:12.330Z,20.10
2019-04-26T06:46:00.495Z,20.25
2019-04-26T06:48:41.500Z,20.45
2019-04-26T06:51:24.484Z,19.20
2019-04-26T06:54:14.247Z,18.85
2019-04-26T06:56:49.364Z,16.42
2019-04-26T06:59:35.791Z,17.48
2019-04-26T07:02:01.533Z,18.37
2019-04-26T07:04:44.049Z,16.25
2019-04-26T07:07:30.019Z,18.75
2019-04-26T07:10:04.048Z,16.85
2019-04-26T07:12:59.979Z,18.82
2019-04-26T07:15:50.336Z,17.82
2019-04-26T07:18:43.833Z,18.57
2019-04-26T07:21:23.530Z,17.32
2019-04-26T07:24:22.273Z,16.97
2019-04-26T07:27:05.109Z,17.73
2019-04-26T07:30:07.333Z,19.17
2019-04-26T07:33:10.956Z,17.98
2019-04-26T07:36:09.863Z,18.60
2019-04-26T07:39:19.891Z,17.77
2019-04-26T07:42:19.982Z,17.10
2019-04-26T07:45:02.242Z,16.77
2019-04-26T07:48:18.267Z,17.20
2019-04-26T07:50:54.345Z,17.25
2019-04-26T07:53:44.403Z,15.35
2019-04-26T07:56:49.639Z,17.32
2019-04-26T07:59:50.306Z,17.87
2019-04-26T08:02:34.027Z,16.77
2019-04-26T08:05:15.532Z,17.02
2019-04-26T08:07:53.301Z,16.55
2019-04-26T08:10:25.305Z,16.17
2019-04-26T08:13:05.950Z,16.95
2019-04-26T08:15:53.255Z,16.93
2019-04-26T08:18:30.803Z,16.77
2019-04-26T08:21:20.728Z,16.10
2019-04-26T08:23:56.457Z,16.48
2019-04-26T08:29:34.656Z,15.15
2019-04-26T08:32:11.321Z,15.72
2019-04-26T08:34:48.263Z,14.80
2019-04-26T08:38:00.575Z,16.07
2019-04-26T08:40:40.481Z,15.48
2019-04-26T08:43:30.858Z,16.35
2019-04-26T08:46:16.166Z,16.55
2019-04-26T08:49:17.812Z,16.25
2019-04-26T08:51:57.531Z,15.03
2019-04-26T08:54:32.746Z,17.52
2019-04-26T08:57:07.205Z,15.72
2019-04-26T08:59:40.852Z,15.58
2019-04-26T09:02:21.971Z,16.82
2019-04-26T09:04:59.817Z,18.25
2019-04-26T09:07:36.993Z,17.57
2019-04-26T09:10:11.461Z,18.12
2019-04-26T09:12:44.785Z,19.80
2019-04-26T09:15:21.422Z,18.10
2019-04-26T09:17:52.767Z,21.27
2019-04-26T09:20:28.948Z,21.02
2019-04-26T09:23:12.235Z,20.50
2019-04-26T09:25:59.405Z,20.32
2019-04-26T09:28:47.693Z,18.95
2019-04-26T09:31:21.131Z,18.80
2019-04-26T09:33:55.875Z,17.40
2019-04-26T09:36:30.531Z,19.30
2019-04-26T09:39:03.843Z,19.50
2019-04-26T09:41:33.789Z,17.40
2019-04-26T09:44:22.119Z,17.37
2019-04-26T09:46:54.436Z,19.12
2019-04-26T09:49:29.331Z,19.30
2019-04-26T09:52:00.780Z,18.92
2019-04-26T09:54:32.205Z,18.50
2019-04-26T09:57:02.753Z,19.42
2019-04-26T09:59:36.332Z,18.73
2019-04-26T10:02:06.294Z,18.92
2019-04-26T10:04:38.829Z,19.67
2019-04-26T10:07:14.348Z,19.57
2019-04-26T10:09:46.268Z,18.82
2019-04-26T10:12:34.196Z,18.40
2019-04-26T10:15:26.799Z,20.10
2019-04-26T10:17:55.760Z,19.55
2019-04-26T10:20:26.367Z,18.67
2019-04-26T10:22:56.806Z,19.27
2019-04-26T10:25:27.373Z,18.75
2019-04-26T10:28:01.073Z,22.70
2019-04-26T10:30:31.553Z,20.37
2019-04-26T10:33:03.618Z,18.07
2019-04-26T10:35:34.855Z,18.90
2019-04-26T10:38:05.669Z,18.37
2019-04-26T10:40:43.121Z,17.45
2019-04-26T10:43:13.841Z,18.60
2019-04-26T10:45:45.938Z,16.57
2019-04-26T10:48:16.578Z,17.82
2019-04-26T10:50:48.162Z,17.95
2019-04-26T10:53:20.174Z,17.40
2019-04-26T10:55:55.830Z,18.48
2019-04-26T10:58:39.692Z,20.05
2019-04-26T11:01:12.104Z,18.87
2019-04-26T11:03:43.640Z,18.05
2019-04-26T11:06:27.765Z,19.65
2019-04-26T11:08:59.462Z,19.70
2019-04-26T11:11:30.187Z,20.17
2019-04-26T11:14:01.130Z,20.23
2019-04-26T11:19:08.221Z,19.60
2019-04-26T11:21:39.105Z,22.70
2019-04-26T11:24:11.337Z,19.17
2019-04-26T11:26:43.363Z,20.20
2019-04-26T11:29:14.477Z,21.55
2019-04-26T11:31:46.720Z,19.82
2019-04-26T11:34:19.241Z,19.95
2019-04-26T11:36:50.434Z,19.10
2019-04-26T11:39:22.706Z,20.27
2019-04-26T11:41:57.284Z,19.10
2019-04-26T11:44:28.554Z,21.30
2019-04-26T11:47:03.269Z,20.97
2019-04-26T11:49:37.384Z,28.83
2019-04-26T11:52:07.626Z,18.80
2019-04-26T11:54:38.431Z,18.27
2019-04-26T11:57:12.138Z,19.07
2019-04-26T11:59:44.219Z,20.27
2019-04-26T12:02:19.768Z,22.07
2019-04-26T12:04:53.755Z,21.87
2019-04-26T12:07:28.291Z,23.00
2019-04-26T12:10:00.362Z,25.40
2019-04-26T12:12:32.419Z,23.02
2019-04-26T12:15:08.557Z,22.90
2019-04-26T12:17:40.567Z,22.70
2019-04-26T12:20:11.147Z,18.65
2019-04-26T12:22:43.403Z,17.73
2019-04-26T12:28:07.338Z,16.52
2019-04-26T12:30:41.192Z,16.90
2019-04-26T12:33:13.239Z,19.40
2019-04-26T12:35:46.122Z,17.48
2019-04-26T12:38:20.243Z,16.30
2019-04-26T12:40:58.394Z,15.38
2019-04-26T12:43:28.902Z,16.15
2019-04-26T12:46:17.586Z,17.35
2019-04-26T12:48:57.245Z,15.58
2019-04-26T12:51:27.950Z,15.63
2019-04-26T12:54:08.082Z,15.78
2019-04-26T12:56:36.664Z,16.25
2019-04-26T12:59:08.498Z,15.95
2019-04-26T13:01:46.370Z,15.48
2019-04-26T13:04:15.837Z,15.50
2019-04-26T13:06:58.218Z,15.90
2019-04-26T13:09:29.731Z,15.00
2019-04-26T13:12:02.092Z,15.70
2019-04-26T13:14:55.341Z,16.90
2019-04-26T13:18:07.219Z,14.70
2019-04-26T13:20:50.640Z,15.53
2019-04-26T13:23:21.455Z,16.12
2019-04-26T13:25:55.375Z,15.00
2019-04-26T13:28:28.220Z,17.30
2019-04-26T13:31:02.359Z,13.50
2019-04-26T13:33:39.554Z,13.72
2019-04-26T13:36:13.330Z,13.70
2019-04-26T13:38:45.187Z,14.95
2019-04-26T13:41:28.007Z,14.38
2019-04-26T13:44:14.324Z,14.63
2019-04-26T13:46:48.357Z,14.70
2019-04-26T13:49:27.527Z,14.38
2019-04-26T13:51:55.902Z,14.23
2019-04-26T13:54:29.214Z,15.15
2019-04-26T13:57:06.144Z,14.93
2019-04-26T13:59:38.921Z,16.12
2019-04-26T14:02:17.482Z,15.23
2019-04-26T14:04:58.519Z,14.95
2019-04-26T14:07:30.670Z,15.60
2019-04-26T14:10:03.120Z,13.98
2019-04-26T14:12:55.545Z,15.83
2019-04-26T14:15:51.653Z,14.78
2019-04-26T14:18:23.670Z,14.05
2019-04-26T14:20:58.979Z,16.05
2019-04-26T14:23:56.499Z,14.75
2019-04-26T14:26:39.827Z,13.55
2019-04-26T14:29:08.454Z,14.30
2019-04-26T14:31:39.166Z,14.47
2019-04-26T14:34:31.532Z,15.03
2019-04-26T14:37:15.346Z,13.98
2019-04-26T14:39:59.056Z,15.00
2019-04-26T14:42:48.455Z,14.70
2019-04-26T14:45:24.152Z,14.05
2019-04-26T14:48:20.070Z,14.23
2019-04-26T14:50:53.153Z,14.90
2019-04-26T14:53:23.515Z,13.60
2019-04-26T14:55:56.809Z,12.68
2019-04-26T14:58:32.108Z,12.45
2019-04-26T15:01:05.166Z,12.70
2019-04-26T15:03:59.299Z,13.65
2019-04-26T15:06:33.221Z,13.98
2019-04-26T15:09:16.823Z,12.82
2019-04-26T15:11:37.810Z,12.05
2019-04-26T15:14:23.806Z,12.20
2019-04-26T15:16:54.299Z,13.25
2019-04-26T15:19:24.919Z,19.30
2019-04-26T15:21:58.069Z,12.18
2019-04-26T15:24:30.158Z,13.75
2019-04-26T15:27:01.814Z,12.53
2019-04-26T15:29:33.024Z,12.68
2019-04-26T15:32:05.317Z,12.55
2019-04-26T15:34:35.772Z,12.00
2019-04-26T15:37:06.444Z,14.10
2019-04-26T15:39:56.825Z,13.13
2019-04-26T15:42:42.263Z,14.05
2019-04-26T15:45:14.337Z,14.85
2019-04-26T15:47:46.545Z,11.97
2019-04-26T15:50:18.631Z,13.20
2019-04-26T15:52:49.165Z,13.38
2019-04-26T15:55:19.632Z,12.33
2019-04-26T15:57:50.065Z,12.35
2019-04-26T16:00:22.455Z,13.68
2019-04-26T16:02:54.601Z,13.53
2019-04-26T16:05:29.421Z,13.38
2019-04-26T16:07:57.366Z,12.50
2019-04-26T16:10:33.533Z,13.25
2019-04-26T16:13:16.199Z,13.85
2019-04-26T16:15:33.769Z,13.38
2019-04-26T16:18:04.395Z,13.90
2019-04-26T16:20:37.648Z,15.35
2019-04-26T16:23:07.446Z,13.10
2019-04-26T16:25:39.184Z,14.18
2019-04-26T16:28:26.145Z,12.35
2019-04-26T16:31:06.634Z,13.08
2019-04-26T16:33:40.566Z,12.63
2019-04-26T16:36:11.021Z,13.10
2019-04-26T16:38:41.451Z,13.00
2019-04-26T16:41:11.929Z,14.83
2019-04-26T16:43:52.218Z,13.78
2019-04-26T16:46:20.070Z,13.90
2019-04-26T16:48:46.664Z,13.00
2019-04-26T16:51:17.118Z,13.30
2019-04-26T16:54:03.746Z,12.88
2019-04-26T16:56:25.941Z,11.70
2019-04-26T16:58:54.737Z,12.50
2019-04-26T17:01:24.045Z,13.38
2019-04-26T17:03:54.895Z,12.43
2019-04-26T17:06:25.341Z,13.78
2019-04-26T17:09:01.002Z,13.58
2019-04-26T17:11:30.245Z,15.78
2019-04-26T17:14:04.325Z,17.02
2019-04-26T17:16:34.689Z,16.27
2019-04-26T17:19:04.574Z,13.48
2019-04-26T17:21:36.645Z,13.28
2019-04-26T17:24:23.520Z,13.83
2019-04-26T17:26:58.602Z,13.75
2019-04-26T17:29:29.020Z,13.13
2019-04-26T17:32:02.539Z,12.33
2019-04-26T17:34:33.629Z,13.93
2019-04-26T17:37:07.893Z,13.70
2019-04-26T17:39:36.340Z,13.93
2019-04-26T17:42:06.841Z,13.90
2019-04-26T17:44:37.292Z,18.17
2019-04-26T17:47:08.503Z,15.00
2019-04-26T17:49:42.340Z,14.05
2019-04-26T17:52:11.741Z,14.20
2019-04-26T17:54:52.477Z,14.47
2019-04-26T17:57:14.829Z,15.10
2019-04-26T17:59:48.951Z,14.07
2019-04-26T18:02:25.889Z,15.35
2019-04-26T18:04:59.040Z,14.13
2019-04-26T18:07:39.802Z,15.85
2019-04-26T18:09:56.991Z,16.62
2019-04-26T18:12:27.016Z,14.93
2019-04-26T18:15:00.129Z,15.55
2019-04-26T18:17:38.912Z,15.05
2019-04-26T18:20:23.513Z,14.95
2019-04-26T18:22:55.568Z,13.65
2019-04-26T18:25:26.186Z,15.68
2019-04-26T18:27:56.680Z,14.95
2019-04-26T18:30:27.393Z,15.50
2019-04-26T18:32:57.837Z,17.45
2019-04-26T18:35:28.271Z,19.07
2019-04-26T18:37:58.739Z,17.57
2019-04-26T18:40:29.157Z,16.65
2019-04-26T18:42:59.636Z,16.35
2019-04-26T18:45:30.240Z,15.25
2019-04-26T18:48:01.938Z,15.68
2019-04-26T18:50:36.381Z,15.55
2019-04-26T18:53:15.333Z,16.45
2019-04-26T18:55:47.342Z,19.02
2019-04-26T18:58:17.831Z,20.20
2019-04-26T19:00:48.247Z,22.48
2019-04-26T19:03:18.754Z,21.57
2019-04-26T19:05:49.455Z,24.63
2019-04-26T19:08:20.822Z,18.95
2019-04-26T19:10:59.213Z,19.42
2019-04-26T19:13:32.134Z,21.10
2019-04-26T19:16:03.678Z,19.35
2019-04-26T19:18:45.044Z,21.60
2019-04-26T19:21:25.862Z,21.75
2019-04-26T19:24:05.852Z,21.07
2019-04-26T19:26:32.996Z,22.10
2019-04-26T19:29:02.113Z,22.35
2019-04-26T19:31:32.850Z,22.55
2019-04-26T19:34:03.333Z,22.60
2019-04-26T19:36:33.750Z,23.67
2019-04-26T19:39:05.666Z,20.35
2019-04-26T19:41:36.103Z,19.20
2019-04-26T19:44:06.665Z,19.00
2019-04-26T19:46:53.640Z,19.90
2019-04-26T19:49:40.332Z,19.37
2019-04-26T19:52:15.008Z,17.52
2019-04-26T19:54:47.038Z,18.23
2019-04-26T19:57:39.262Z,19.57
2019-04-26T20:00:09.877Z,37.15
2019-04-26T20:02:41.844Z,16.97
2019-04-26T20:05:12.569Z,14.87
2019-04-26T20:07:43.844Z,13.15
2019-04-26T20:10:14.292Z,12.88
2019-04-26T20:12:44.717Z,12.28
2019-04-26T20:15:25.448Z,12.37
2019-04-26T20:17:52.388Z,9.83
2019-04-26T20:20:23.222Z,10.98
2019-04-26T20:22:51.584Z,11.20
2019-04-26T20:25:22.423Z,9.48
2019-04-26T20:27:53.762Z,9.90
2019-04-26T20:30:32.677Z,9.20
2019-04-26T20:33:03.199Z,9.73
2019-04-26T20:35:33.651Z,15.88
2019-04-26T20:38:04.892Z,9.65
2019-04-26T20:40:35.413Z,9.78
2019-04-26T20:43:07.054Z,9.43
2019-04-26T20:45:41.447Z,8.18
2019-04-26T20:48:10.050Z,7.28
2019-04-26T20:50:41.331Z,8.45
2019-04-26T20:53:12.128Z,8.08
2019-04-26T20:55:42.839Z,6.83
2019-04-26T20:58:13.271Z,7.55
2019-04-26T21:00:53.799Z,7.35
2019-04-26T21:03:23.869Z,7.12
2019-04-26T21:05:52.829Z,7.22
2019-04-26T21:08:25.750Z,6.97
2019-04-26T21:10:56.041Z,8.10
2019-04-26T21:13:30.788Z,9.00
2019-04-26T21:16:03.443Z,7.45
2019-04-26T21:18:33.764Z,7.47
2019-04-26T21:21:05.816Z,7.55
2019-04-26T21:23:39.974Z,8.03
2019-04-26T21:26:16.578Z,7.15
2019-04-26T21:28:51.967Z,8.25
2019-04-26T21:31:25.488Z,7.47
2019-04-26T21:34:07.828Z,7.20
2019-04-26T21:36:49.148Z,6.95
2019-04-26T21:39:23.882Z,7.20
2019-04-26T21:41:55.927Z,7.15
2019-04-26T21:44:26.370Z,6.28
2019-04-26T21:46:58.954Z,6.05
2019-04-26T21:49:28.958Z,5.80
2019-04-26T21:51:59.420Z,6.47
2019-04-26T21:54:29.846Z,6.25
2019-04-26T21:57:00.313Z,6.20
2019-04-26T21:59:35.144Z,7.03
2019-04-26T22:02:03.374Z,6.58
2019-04-26T22:04:37.576Z,6.22
2019-04-26T22:07:07.796Z,5.53
2019-04-26T22:09:45.556Z,6.47
2019-04-26T22:12:16.617Z,5.80
2019-04-26T22:14:50.743Z,5.45
2019-04-26T22:17:28.071Z,6.58
2019-04-26T22:20:12.497Z,5.87
2019-04-26T22:22:41.466Z,6.17
2019-04-26T22:25:12.915Z,7.03
2019-04-26T22:27:43.758Z,7.20
2019-04-26T22:30:18.566Z,7.70
2019-04-26T22:32:54.675Z,6.60
2019-04-26T22:35:21.680Z,7.58
2019-04-26T22:37:53.739Z,7.70
2019-04-26T22:40:24.223Z,7.58
2019-04-26T22:42:56.256Z,7.10
2019-04-26T22:45:34.433Z,6.08
2019-04-26T22:48:11.545Z,6.90
2019-04-26T22:50:41.275Z,7.35
2019-04-26T22:53:12.047Z,7.47
2019-04-26T22:55:43.619Z,8.60
2019-04-26T22:58:14.145Z,7.47
2019-04-26T23:00:44.742Z,8.75
2019-04-26T23:03:16.623Z,8.13
2019-04-26T23:05:47.075Z,8.25
2019-04-26T23:08:17.535Z,9.20
2019-04-26T23:10:52.993Z,9.60
2019-04-26T23:13:33.882Z,9.03
2019-04-26T23:16:11.118Z,8.75
2019-04-26T23:18:57.810Z,8.13
2019-04-26T23:21:29.931Z,8.78
2019-04-26T23:24:00.412Z,9.48
2019-04-26T23:26:30.819Z,10.08
2019-04-26T23:29:01.322Z,8.78
2019-04-26T23:31:33.363Z,9.38
2019-04-26T23:34:04.081Z,8.93
2019-04-26T23:36:34.931Z,9.38
2019-04-26T23:39:07.678Z,8.68
2019-04-26T23:41:41.675Z,11.05
2019-04-26T23:47:20.556Z,9.73
2019-04-26T23:49:43.394Z,9.27
2019-04-26T23:52:14.566Z,10.40
2019-04-26T23:54:46.390Z,8.83
2019-04-26T23:57:16.933Z,9.77
2019-04-26T23:59:51.043Z,9.93
